sensor_id;sensor_type;location;lat;lon;timestamp;P1;durP1;ratioP1;P2;durP2;ratioP2
3503;SDS011;1766;53.490;10.174;2023-02-08T00:01:59;35.43;;;17.40;;
3503;SDS011;1766;53.490;10.174;2023-02-08T00:04:01;33.20;;;18.03;;
3503;SDS011;1766;53.490;10.174;2023-02-08T00:06:03;33.03;;;16.93;;
3503;SDS011;1766;53.490;10.174;2023-02-08T00:08:06;31.13;;;16.73;;
3503;SDS011;1766;53.490;10.174;2023-02-08T00:10:10;32.67;;;16.43;;
3503;SDS011;1766;53.490;10.174;2023-02-08T00:12:12;35.40;;;18.27;;
3503;SDS011;1766;53.490;10.174;2023-02-08T00:14:14;31.53;;;17.07;;
3503;SDS011;1766;53.490;10.174;2023-02-08T00:16:15;31.70;;;17.13;;
3503;SDS011;1766;53.490;10.174;2023-02-08T00:18:18;31.37;;;16.50;;
3503;SDS011;1766;53.490;10.174;2023-02-08T00:20:20;33.97;;;18.73;;
3503;SDS011;1766;53.490;10.174;2023-02-08T00:22:22;32.07;;;17.40;;
3503;SDS011;1766;53.490;10.174;2023-02-08T00:24:29;31.53;;;17.13;;
3503;SDS011;1766;53.490;10.174;2023-02-08T00:26:32;34.33;;;17.57;;
3503;SDS011;1766;53.490;10.174;2023-02-08T00:28:34;30.03;;;16.13;;
3503;SDS011;1766;53.490;10.174;2023-02-08T00:30:36;31.17;;;16.07;;
3503;SDS011;1766;53.490;10.174;2023-02-08T00:32:37;34.47;;;17.20;;
3503;SDS011;1766;53.490;10.174;2023-02-08T00:34:39;36.03;;;17.17;;
3503;SDS011;1766;53.490;10.174;2023-02-08T00:36:41;33.77;;;17.40;;
3503;SDS011;1766;53.490;10.174;2023-02-08T00:38:43;30.50;;;16.47;;
3503;SDS011;1766;53.490;10.174;2023-02-08T00:40:45;29.97;;;16.07;;
3503;SDS011;1766;53.490;10.174;2023-02-08T00:42:48;32.33;;;16.93;;
3503;SDS011;1766;53.490;10.174;2023-02-08T00:44:49;32.80;;;16.03;;
3503;SDS011;1766;53.490;10.174;2023-02-08T00:46:51;31.70;;;17.33;;
3503;SDS011;1766;53.490;10.174;2023-02-08T00:48:53;32.13;;;16.53;;
3503;SDS011;1766;53.490;10.174;2023-02-08T00:50:56;32.40;;;17.67;;
3503;SDS011;1766;53.490;10.174;2023-02-08T00:52:59;32.43;;;16.07;;
3503;SDS011;1766;53.490;10.174;2023-02-08T00:55:02;33.77;;;16.03;;
3503;SDS011;1766;53.490;10.174;2023-02-08T00:57:04;30.13;;;15.70;;
3503;SDS011;1766;53.490;10.174;2023-02-08T00:59:07;32.50;;;16.10;;
3503;SDS011;1766;53.490;10.174;2023-02-08T01:01:09;32.77;;;17.27;;
3503;SDS011;1766;53.490;10.174;2023-02-08T01:03:11;32.00;;;16.30;;
3503;SDS011;1766;53.490;10.174;2023-02-08T01:05:13;30.33;;;15.73;;
3503;SDS011;1766;53.490;10.174;2023-02-08T01:07:15;31.67;;;16.60;;
3503;SDS011;1766;53.490;10.174;2023-02-08T01:09:32;33.23;;;17.07;;
3503;SDS011;1766;53.490;10.174;2023-02-08T01:11:35;35.50;;;16.70;;
3503;SDS011;1766;53.490;10.174;2023-02-08T01:13:37;35.97;;;16.90;;
3503;SDS011;1766;53.490;10.174;2023-02-08T01:15:40;29.90;;;15.83;;
3503;SDS011;1766;53.490;10.174;2023-02-08T01:17:43;33.07;;;16.30;;
3503;SDS011;1766;53.490;10.174;2023-02-08T01:19:44;29.40;;;16.20;;
3503;SDS011;1766;53.490;10.174;2023-02-08T01:21:46;32.60;;;16.00;;
3503;SDS011;1766;53.490;10.174;2023-02-08T01:23:49;35.20;;;16.50;;
3503;SDS011;1766;53.490;10.174;2023-02-08T01:25:51;29.53;;;16.20;;
3503;SDS011;1766;53.490;10.174;2023-02-08T01:27:53;33.17;;;16.93;;
3503;SDS011;1766;53.490;10.174;2023-02-08T01:29:56;33.17;;;17.07;;
3503;SDS011;1766;53.490;10.174;2023-02-08T01:31:59;32.27;;;17.40;;
3503;SDS011;1766;53.490;10.174;2023-02-08T01:34:01;33.60;;;16.73;;
3503;SDS011;1766;53.490;10.174;2023-02-08T01:36:05;32.17;;;16.13;;
3503;SDS011;1766;53.490;10.174;2023-02-08T01:38:08;35.00;;;17.03;;
3503;SDS011;1766;53.490;10.174;2023-02-08T01:40:10;34.00;;;17.50;;
3503;SDS011;1766;53.490;10.174;2023-02-08T01:42:12;33.33;;;16.60;;
3503;SDS011;1766;53.490;10.174;2023-02-08T01:47:02;34.90;;;17.30;;
3503;SDS011;1766;53.490;10.174;2023-02-08T01:49:05;32.63;;;17.10;;
3503;SDS011;1766;53.490;10.174;2023-02-08T01:51:12;32.53;;;16.23;;
3503;SDS011;1766;53.490;10.174;2023-02-08T01:53:16;34.07;;;17.37;;
3503;SDS011;1766;53.490;10.174;2023-02-08T01:55:19;33.63;;;16.77;;
3503;SDS011;1766;53.490;10.174;2023-02-08T01:57:26;33.37;;;17.00;;
3503;SDS011;1766;53.490;10.174;2023-02-08T01:59:31;38.50;;;18.63;;
3503;SDS011;1766;53.490;10.174;2023-02-08T02:01:37;32.10;;;17.13;;
3503;SDS011;1766;53.490;10.174;2023-02-08T02:03:41;34.53;;;16.60;;
3503;SDS011;1766;53.490;10.174;2023-02-08T02:05:49;38.67;;;18.90;;
3503;SDS011;1766;53.490;10.174;2023-02-08T02:07:55;35.90;;;17.73;;
3503;SDS011;1766;53.490;10.174;2023-02-08T02:10:00;36.13;;;17.27;;
3503;SDS011;1766;53.490;10.174;2023-02-08T02:12:08;38.50;;;18.43;;
3503;SDS011;1766;53.490;10.174;2023-02-08T02:14:11;39.57;;;17.20;;
3503;SDS011;1766;53.490;10.174;2023-02-08T02:16:13;32.23;;;16.83;;
3503;SDS011;1766;53.490;10.174;2023-02-08T02:18:16;35.37;;;17.03;;
3503;SDS011;1766;53.490;10.174;2023-02-08T02:20:26;32.30;;;17.40;;
3503;SDS011;1766;53.490;10.174;2023-02-08T02:22:47;38.30;;;18.20;;
3503;SDS011;1766;53.490;10.174;2023-02-08T02:27:58;35.97;;;17.83;;
3503;SDS011;1766;53.490;10.174;2023-02-08T02:33:06;35.37;;;16.73;;
3503;SDS011;1766;53.490;10.174;2023-02-08T02:35:23;35.33;;;17.57;;
3503;SDS011;1766;53.490;10.174;2023-02-08T02:37:38;36.17;;;17.77;;
3503;SDS011;1766;53.490;10.174;2023-02-08T02:39:53;38.20;;;18.23;;
3503;SDS011;1766;53.490;10.174;2023-02-08T02:42:06;32.70;;;16.43;;
3503;SDS011;1766;53.490;10.174;2023-02-08T02:44:30;34.73;;;17.37;;
3503;SDS011;1766;53.490;10.174;2023-02-08T02:46:39;34.13;;;17.60;;
3503;SDS011;1766;53.490;10.174;2023-02-08T02:48:48;33.17;;;18.13;;
3503;SDS011;1766;53.490;10.174;2023-02-08T02:50:55;35.53;;;17.27;;
3503;SDS011;1766;53.490;10.174;2023-02-08T02:53:02;40.63;;;17.67;;
3503;SDS011;1766;53.490;10.174;2023-02-08T02:55:12;36.17;;;17.47;;
3503;SDS011;1766;53.490;10.174;2023-02-08T02:57:18;36.07;;;18.10;;
3503;SDS011;1766;53.490;10.174;2023-02-08T02:59:25;38.77;;;18.37;;
3503;SDS011;1766;53.490;10.174;2023-02-08T03:01:28;33.57;;;16.87;;
3503;SDS011;1766;53.490;10.174;2023-02-08T03:03:30;33.43;;;18.10;;
3503;SDS011;1766;53.490;10.174;2023-02-08T03:05:35;36.20;;;17.70;;
3503;SDS011;1766;53.490;10.174;2023-02-08T03:07:42;39.10;;;17.80;;
3503;SDS011;1766;53.490;10.174;2023-02-08T03:10:04;37.50;;;18.70;;
3503;SDS011;1766;53.490;10.174;2023-02-08T03:12:27;35.23;;;17.40;;
3503;SDS011;1766;53.490;10.174;2023-02-08T03:14:37;34.93;;;16.90;;
3503;SDS011;1766;53.490;10.174;2023-02-08T03:16:57;35.10;;;16.33;;
3503;SDS011;1766;53.490;10.174;2023-02-08T03:19:09;40.07;;;17.90;;
3503;SDS011;1766;53.490;10.174;2023-02-08T03:21:23;37.97;;;18.70;;
3503;SDS011;1766;53.490;10.174;2023-02-08T03:23:35;37.23;;;18.47;;
3503;SDS011;1766;53.490;10.174;2023-02-08T03:25:45;38.23;;;17.77;;
3503;SDS011;1766;53.490;10.174;2023-02-08T03:27:54;39.10;;;18.97;;
3503;SDS011;1766;53.490;10.174;2023-02-08T03:30:06;37.87;;;18.40;;
3503;SDS011;1766;53.490;10.174;2023-02-08T03:32:16;36.87;;;18.10;;
3503;SDS011;1766;53.490;10.174;2023-02-08T03:34:25;36.40;;;17.27;;
3503;SDS011;1766;53.490;10.174;2023-02-08T03:36:36;39.90;;;18.37;;
3503;SDS011;1766;53.490;10.174;2023-02-08T03:38:43;43.17;;;18.40;;
3503;SDS011;1766;53.490;10.174;2023-02-08T03:40:48;39.20;;;17.37;;
3503;SDS011;1766;53.490;10.174;2023-02-08T03:42:54;38.37;;;17.07;;
3503;SDS011;1766;53.490;10.174;2023-02-08T03:45:01;38.07;;;17.47;;
3503;SDS011;1766;53.490;10.174;2023-02-08T03:47:11;34.60;;;17.93;;
3503;SDS011;1766;53.490;10.174;2023-02-08T03:49:17;38.83;;;19.33;;
3503;SDS011;1766;53.490;10.174;2023-02-08T03:51:24;51.73;;;22.23;;
3503;SDS011;1766;53.490;10.174;2023-02-08T03:53:31;42.03;;;21.23;;
3503;SDS011;1766;53.490;10.174;2023-02-08T03:55:37;41.50;;;19.13;;
3503;SDS011;1766;53.490;10.174;2023-02-08T03:57:42;35.33;;;17.17;;
3503;SDS011;1766;53.490;10.174;2023-02-08T03:59:51;38.23;;;18.03;;
3503;SDS011;1766;53.490;10.174;2023-02-08T04:01:57;36.90;;;17.73;;
3503;SDS011;1766;53.490;10.174;2023-02-08T04:04:02;42.87;;;19.20;;
3503;SDS011;1766;53.490;10.174;2023-02-08T04:06:04;43.33;;;21.07;;
3503;SDS011;1766;53.490;10.174;2023-02-08T04:08:07;40.47;;;19.37;;
3503;SDS011;1766;53.490;10.174;2023-02-08T04:10:10;36.73;;;17.87;;
3503;SDS011;1766;53.490;10.174;2023-02-08T04:12:12;35.03;;;18.13;;
3503;SDS011;1766;53.490;10.174;2023-02-08T04:14:14;38.13;;;18.10;;
3503;SDS011;1766;53.490;10.174;2023-02-08T04:16:16;40.13;;;18.47;;
3503;SDS011;1766;53.490;10.174;2023-02-08T04:18:18;52.27;;;25.37;;
3503;SDS011;1766;53.490;10.174;2023-02-08T04:20:20;43.00;;;19.93;;
3503;SDS011;1766;53.490;10.174;2023-02-08T04:22:22;43.40;;;19.70;;
3503;SDS011;1766;53.490;10.174;2023-02-08T04:24:23;38.23;;;18.67;;
3503;SDS011;1766;53.490;10.174;2023-02-08T04:26:26;40.27;;;18.13;;
3503;SDS011;1766;53.490;10.174;2023-02-08T04:28:28;39.63;;;18.80;;
3503;SDS011;1766;53.490;10.174;2023-02-08T04:30:30;44.00;;;20.17;;
3503;SDS011;1766;53.490;10.174;2023-02-08T04:32:32;41.33;;;19.87;;
3503;SDS011;1766;53.490;10.174;2023-02-08T04:34:34;46.47;;;21.43;;
3503;SDS011;1766;53.490;10.174;2023-02-08T04:36:36;41.90;;;19.37;;
3503;SDS011;1766;53.490;10.174;2023-02-08T04:38:37;42.03;;;19.03;;
3503;SDS011;1766;53.490;10.174;2023-02-08T04:40:39;42.10;;;18.80;;
3503;SDS011;1766;53.490;10.174;2023-02-08T04:42:42;53.83;;;22.13;;
3503;SDS011;1766;53.490;10.174;2023-02-08T04:44:44;41.73;;;20.10;;
3503;SDS011;1766;53.490;10.174;2023-02-08T04:46:46;41.87;;;19.17;;
3503;SDS011;1766;53.490;10.174;2023-02-08T04:48:48;39.63;;;18.90;;
3503;SDS011;1766;53.490;10.174;2023-02-08T04:50:50;46.03;;;19.83;;
3503;SDS011;1766;53.490;10.174;2023-02-08T04:52:55;47.47;;;20.93;;
3503;SDS011;1766;53.490;10.174;2023-02-08T04:54:57;43.70;;;20.37;;
3503;SDS011;1766;53.490;10.174;2023-02-08T04:56:59;47.20;;;19.73;;
3503;SDS011;1766;53.490;10.174;2023-02-08T04:59:02;44.73;;;20.60;;
3503;SDS011;1766;53.490;10.174;2023-02-08T05:01:04;42.87;;;19.33;;
3503;SDS011;1766;53.490;10.174;2023-02-08T05:03:07;43.83;;;18.77;;
3503;SDS011;1766;53.490;10.174;2023-02-08T05:05:09;39.97;;;20.20;;
3503;SDS011;1766;53.490;10.174;2023-02-08T05:07:11;44.57;;;20.13;;
3503;SDS011;1766;53.490;10.174;2023-02-08T05:09:12;47.87;;;21.50;;
3503;SDS011;1766;53.490;10.174;2023-02-08T05:11:18;44.77;;;20.10;;
3503;SDS011;1766;53.490;10.174;2023-02-08T05:13:20;42.47;;;20.90;;
3503;SDS011;1766;53.490;10.174;2023-02-08T05:15:23;45.17;;;20.90;;
3503;SDS011;1766;53.490;10.174;2023-02-08T05:17:25;43.97;;;20.37;;
3503;SDS011;1766;53.490;10.174;2023-02-08T05:19:27;115.53;;;46.07;;
3503;SDS011;1766;53.490;10.174;2023-02-08T05:21:29;53.13;;;22.80;;
3503;SDS011;1766;53.490;10.174;2023-02-08T05:23:31;48.33;;;21.60;;
3503;SDS011;1766;53.490;10.174;2023-02-08T05:25:33;55.53;;;23.50;;
3503;SDS011;1766;53.490;10.174;2023-02-08T05:27:35;62.47;;;24.43;;
3503;SDS011;1766;53.490;10.174;2023-02-08T05:29:37;53.63;;;23.80;;
3503;SDS011;1766;53.490;10.174;2023-02-08T05:31:40;50.70;;;22.67;;
3503;SDS011;1766;53.490;10.174;2023-02-08T05:33:42;48.97;;;21.67;;
3503;SDS011;1766;53.490;10.174;2023-02-08T05:35:44;48.07;;;22.33;;
3503;SDS011;1766;53.490;10.174;2023-02-08T05:37:46;47.83;;;20.80;;
3503;SDS011;1766;53.490;10.174;2023-02-08T05:39:48;54.13;;;21.10;;
3503;SDS011;1766;53.490;10.174;2023-02-08T05:41:49;42.57;;;20.87;;
3503;SDS011;1766;53.490;10.174;2023-02-08T05:43:51;43.17;;;20.40;;
3503;SDS011;1766;53.490;10.174;2023-02-08T05:45:53;43.40;;;19.57;;
3503;SDS011;1766;53.490;10.174;2023-02-08T05:47:56;49.60;;;21.10;;
3503;SDS011;1766;53.490;10.174;2023-02-08T05:49:58;46.87;;;20.33;;
3503;SDS011;1766;53.490;10.174;2023-02-08T05:52:00;43.17;;;20.60;;
3503;SDS011;1766;53.490;10.174;2023-02-08T05:54:01;46.87;;;20.23;;
3503;SDS011;1766;53.490;10.174;2023-02-08T05:56:04;46.20;;;20.50;;
3503;SDS011;1766;53.490;10.174;2023-02-08T05:58:06;50.43;;;20.63;;
3503;SDS011;1766;53.490;10.174;2023-02-08T06:00:08;49.37;;;20.97;;
3503;SDS011;1766;53.490;10.174;2023-02-08T06:02:11;47.03;;;21.67;;
3503;SDS011;1766;53.490;10.174;2023-02-08T06:04:14;57.83;;;27.47;;
3503;SDS011;1766;53.490;10.174;2023-02-08T06:06:16;50.77;;;21.47;;
3503;SDS011;1766;53.490;10.174;2023-02-08T06:08:18;50.50;;;21.90;;
3503;SDS011;1766;53.490;10.174;2023-02-08T06:10:19;54.27;;;22.83;;
3503;SDS011;1766;53.490;10.174;2023-02-08T06:12:21;46.67;;;21.67;;
3503;SDS011;1766;53.490;10.174;2023-02-08T06:14:23;46.83;;;21.07;;
3503;SDS011;1766;53.490;10.174;2023-02-08T06:16:25;45.87;;;21.97;;
3503;SDS011;1766;53.490;10.174;2023-02-08T06:18:27;45.73;;;19.87;;
3503;SDS011;1766;53.490;10.174;2023-02-08T06:20:30;48.97;;;21.23;;
3503;SDS011;1766;53.490;10.174;2023-02-08T06:22:33;44.73;;;20.33;;
3503;SDS011;1766;53.490;10.174;2023-02-08T06:24:35;48.33;;;21.70;;
3503;SDS011;1766;53.490;10.174;2023-02-08T06:26:37;41.40;;;19.83;;
3503;SDS011;1766;53.490;10.174;2023-02-08T06:28:39;45.63;;;20.87;;
3503;SDS011;1766;53.490;10.174;2023-02-08T06:30:40;45.57;;;20.33;;
3503;SDS011;1766;53.490;10.174;2023-02-08T06:32:42;50.03;;;22.00;;
3503;SDS011;1766;53.490;10.174;2023-02-08T06:34:44;49.33;;;20.73;;
3503;SDS011;1766;53.490;10.174;2023-02-08T06:36:48;46.30;;;20.67;;
3503;SDS011;1766;53.490;10.174;2023-02-08T06:38:50;51.20;;;21.20;;
3503;SDS011;1766;53.490;10.174;2023-02-08T06:40:52;44.90;;;21.40;;
3503;SDS011;1766;53.490;10.174;2023-02-08T06:42:53;42.17;;;20.63;;
3503;SDS011;1766;53.490;10.174;2023-02-08T06:44:55;49.23;;;21.90;;
3503;SDS011;1766;53.490;10.174;2023-02-08T06:46:58;51.50;;;21.27;;
3503;SDS011;1766;53.490;10.174;2023-02-08T06:48:59;56.30;;;23.00;;
3503;SDS011;1766;53.490;10.174;2023-02-08T06:51:01;50.03;;;21.27;;
3503;SDS011;1766;53.490;10.174;2023-02-08T06:53:05;48.97;;;21.43;;
3503;SDS011;1766;53.490;10.174;2023-02-08T06:55:07;53.53;;;22.23;;
3503;SDS011;1766;53.490;10.174;2023-02-08T06:57:08;50.47;;;23.17;;
3503;SDS011;1766;53.490;10.174;2023-02-08T06:59:12;48.23;;;22.27;;
3503;SDS011;1766;53.490;10.174;2023-02-08T07:01:14;52.47;;;23.33;;
3503;SDS011;1766;53.490;10.174;2023-02-08T07:03:16;52.57;;;23.17;;
3503;SDS011;1766;53.490;10.174;2023-02-08T07:05:17;53.07;;;22.13;;
3503;SDS011;1766;53.490;10.174;2023-02-08T07:07:19;55.77;;;23.27;;
3503;SDS011;1766;53.490;10.174;2023-02-08T07:09:22;50.93;;;22.30;;
3503;SDS011;1766;53.490;10.174;2023-02-08T07:11:24;58.33;;;21.57;;
3503;SDS011;1766;53.490;10.174;2023-02-08T07:13:26;59.13;;;23.37;;
3503;SDS011;1766;53.490;10.174;2023-02-08T07:15:28;59.00;;;23.53;;
3503;SDS011;1766;53.490;10.174;2023-02-08T07:17:30;55.93;;;23.67;;
3503;SDS011;1766;53.490;10.174;2023-02-08T07:19:32;95.97;;;38.73;;
3503;SDS011;1766;53.490;10.174;2023-02-08T07:21:34;56.60;;;25.00;;
3503;SDS011;1766;53.490;10.174;2023-02-08T07:23:36;59.80;;;23.10;;
3503;SDS011;1766;53.490;10.174;2023-02-08T07:25:39;53.63;;;23.63;;
3503;SDS011;1766;53.490;10.174;2023-02-08T07:27:41;54.43;;;26.00;;
3503;SDS011;1766;53.490;10.174;2023-02-08T07:29:43;60.37;;;25.63;;
3503;SDS011;1766;53.490;10.174;2023-02-08T07:31:45;62.73;;;23.93;;
3503;SDS011;1766;53.490;10.174;2023-02-08T07:33:47;59.90;;;25.77;;
3503;SDS011;1766;53.490;10.174;2023-02-08T07:35:49;66.53;;;25.17;;
3503;SDS011;1766;53.490;10.174;2023-02-08T07:37:51;63.40;;;26.83;;
3503;SDS011;1766;53.490;10.174;2023-02-08T07:39:53;57.70;;;24.27;;
3503;SDS011;1766;53.490;10.174;2023-02-08T07:41:56;58.10;;;25.43;;
3503;SDS011;1766;53.490;10.174;2023-02-08T07:43:58;59.47;;;24.47;;
3503;SDS011;1766;53.490;10.174;2023-02-08T07:46:04;62.03;;;25.53;;
3503;SDS011;1766;53.490;10.174;2023-02-08T07:48:07;61.20;;;24.83;;
3503;SDS011;1766;53.490;10.174;2023-02-08T07:50:09;60.10;;;26.27;;
3503;SDS011;1766;53.490;10.174;2023-02-08T07:52:11;62.73;;;24.67;;
3503;SDS011;1766;53.490;10.174;2023-02-08T07:54:18;62.23;;;25.57;;
3503;SDS011;1766;53.490;10.174;2023-02-08T07:56:20;69.60;;;25.47;;
3503;SDS011;1766;53.490;10.174;2023-02-08T07:58:23;62.37;;;26.03;;
3503;SDS011;1766;53.490;10.174;2023-02-08T08:00:26;65.17;;;26.43;;
3503;SDS011;1766;53.490;10.174;2023-02-08T08:02:28;62.50;;;25.60;;
3503;SDS011;1766;53.490;10.174;2023-02-08T08:04:29;57.37;;;24.03;;
3503;SDS011;1766;53.490;10.174;2023-02-08T08:06:31;59.90;;;24.10;;
3503;SDS011;1766;53.490;10.174;2023-02-08T08:08:33;62.07;;;24.67;;
3503;SDS011;1766;53.490;10.174;2023-02-08T08:10:35;71.77;;;28.60;;
3503;SDS011;1766;53.490;10.174;2023-02-08T08:12:37;64.17;;;25.97;;
3503;SDS011;1766;53.490;10.174;2023-02-08T08:14:40;58.83;;;26.57;;
3503;SDS011;1766;53.490;10.174;2023-02-08T08:16:42;67.27;;;27.13;;
3503;SDS011;1766;53.490;10.174;2023-02-08T08:18:44;63.57;;;26.60;;
3503;SDS011;1766;53.490;10.174;2023-02-08T08:20:46;64.40;;;28.13;;
3503;SDS011;1766;53.490;10.174;2023-02-08T08:22:47;70.53;;;27.50;;
3503;SDS011;1766;53.490;10.174;2023-02-08T08:24:49;62.87;;;25.70;;
3503;SDS011;1766;53.490;10.174;2023-02-08T08:26:51;66.53;;;27.03;;
3503;SDS011;1766;53.490;10.174;2023-02-08T08:28:53;61.33;;;27.10;;
3503;SDS011;1766;53.490;10.174;2023-02-08T08:30:56;69.20;;;25.00;;
3503;SDS011;1766;53.490;10.174;2023-02-08T08:32:58;68.57;;;27.73;;
3503;SDS011;1766;53.490;10.174;2023-02-08T08:34:59;64.53;;;27.10;;
3503;SDS011;1766;53.490;10.174;2023-02-08T08:37:01;61.23;;;25.50;;
3503;SDS011;1766;53.490;10.174;2023-02-08T08:39:03;51.60;;;24.50;;
3503;SDS011;1766;53.490;10.174;2023-02-08T08:41:06;63.20;;;27.67;;
3503;SDS011;1766;53.490;10.174;2023-02-08T08:43:09;57.70;;;24.23;;
3503;SDS011;1766;53.490;10.174;2023-02-08T08:45:11;62.40;;;26.07;;
3503;SDS011;1766;53.490;10.174;2023-02-08T08:47:14;59.47;;;24.53;;
3503;SDS011;1766;53.490;10.174;2023-02-08T08:49:16;66.80;;;25.33;;
3503;SDS011;1766;53.490;10.174;2023-02-08T08:51:18;57.73;;;25.27;;
3503;SDS011;1766;53.490;10.174;2023-02-08T08:53:20;59.13;;;23.80;;
3503;SDS011;1766;53.490;10.174;2023-02-08T08:55:22;55.27;;;23.30;;
3503;SDS011;1766;53.490;10.174;2023-02-08T08:57:23;57.50;;;24.70;;
3503;SDS011;1766;53.490;10.174;2023-02-08T08:59:28;57.13;;;22.60;;
3503;SDS011;1766;53.490;10.174;2023-02-08T09:01:30;54.60;;;24.23;;
3503;SDS011;1766;53.490;10.174;2023-02-08T09:03:33;56.57;;;23.93;;
3503;SDS011;1766;53.490;10.174;2023-02-08T09:05:37;53.07;;;23.47;;
3503;SDS011;1766;53.490;10.174;2023-02-08T09:07:38;57.10;;;23.77;;
3503;SDS011;1766;53.490;10.174;2023-02-08T09:09:40;57.27;;;23.93;;
3503;SDS011;1766;53.490;10.174;2023-02-08T09:11:47;55.93;;;25.03;;
3503;SDS011;1766;53.490;10.174;2023-02-08T09:13:49;53.67;;;22.00;;
3503;SDS011;1766;53.490;10.174;2023-02-08T09:15:55;56.37;;;23.30;;
3503;SDS011;1766;53.490;10.174;2023-02-08T09:17:57;56.47;;;22.10;;
3503;SDS011;1766;53.490;10.174;2023-02-08T09:20:00;53.93;;;23.03;;
3503;SDS011;1766;53.490;10.174;2023-02-08T09:22:04;53.70;;;23.77;;
3503;SDS011;1766;53.490;10.174;2023-02-08T09:24:07;55.70;;;22.43;;
3503;SDS011;1766;53.490;10.174;2023-02-08T09:26:10;50.90;;;22.57;;
3503;SDS011;1766;53.490;10.174;2023-02-08T09:28:13;52.17;;;23.30;;
3503;SDS011;1766;53.490;10.174;2023-02-08T09:30:15;48.20;;;21.33;;
3503;SDS011;1766;53.490;10.174;2023-02-08T09:32:17;47.87;;;21.53;;
3503;SDS011;1766;53.490;10.174;2023-02-08T09:34:20;48.90;;;22.03;;
3503;SDS011;1766;53.490;10.174;2023-02-08T09:36:24;48.33;;;21.50;;
3503;SDS011;1766;53.490;10.174;2023-02-08T09:38:28;45.87;;;19.50;;
3503;SDS011;1766;53.490;10.174;2023-02-08T09:40:32;48.10;;;21.00;;
3503;SDS011;1766;53.490;10.174;2023-02-08T09:42:46;47.27;;;20.90;;
3503;SDS011;1766;53.490;10.174;2023-02-08T09:45:02;50.37;;;22.77;;
3503;SDS011;1766;53.490;10.174;2023-02-08T09:47:21;44.27;;;19.47;;
3503;SDS011;1766;53.490;10.174;2023-02-08T09:49:31;51.60;;;21.37;;
3503;SDS011;1766;53.490;10.174;2023-02-08T09:51:41;47.10;;;20.87;;
3503;SDS011;1766;53.490;10.174;2023-02-08T09:53:47;48.50;;;21.93;;
3503;SDS011;1766;53.490;10.174;2023-02-08T09:55:56;49.13;;;22.27;;
3503;SDS011;1766;53.490;10.174;2023-02-08T09:58:07;50.63;;;21.80;;
3503;SDS011;1766;53.490;10.174;2023-02-08T10:00:23;44.63;;;20.30;;
3503;SDS011;1766;53.490;10.174;2023-02-08T10:02:32;47.43;;;20.73;;
3503;SDS011;1766;53.490;10.174;2023-02-08T10:04:36;47.03;;;21.33;;
3503;SDS011;1766;53.490;10.174;2023-02-08T10:06:45;45.67;;;21.83;;
3503;SDS011;1766;53.490;10.174;2023-02-08T10:08:48;51.63;;;21.80;;
3503;SDS011;1766;53.490;10.174;2023-02-08T10:10:52;50.30;;;21.47;;
3503;SDS011;1766;53.490;10.174;2023-02-08T10:12:58;44.53;;;20.13;;
3503;SDS011;1766;53.490;10.174;2023-02-08T10:15:15;49.43;;;22.00;;
3503;SDS011;1766;53.490;10.174;2023-02-08T10:17:35;45.83;;;20.43;;
3503;SDS011;1766;53.490;10.174;2023-02-08T10:19:51;49.40;;;22.50;;
3503;SDS011;1766;53.490;10.174;2023-02-08T10:22:08;48.33;;;21.53;;
3503;SDS011;1766;53.490;10.174;2023-02-08T10:24:29;47.37;;;20.93;;
3503;SDS011;1766;53.490;10.174;2023-02-08T10:26:47;50.90;;;21.40;;
3503;SDS011;1766;53.490;10.174;2023-02-08T10:29:06;47.50;;;21.37;;
3503;SDS011;1766;53.490;10.174;2023-02-08T10:31:25;46.53;;;21.23;;
3503;SDS011;1766;53.490;10.174;2023-02-08T10:33:40;46.20;;;19.43;;
3503;SDS011;1766;53.490;10.174;2023-02-08T10:35:48;42.03;;;19.17;;
3503;SDS011;1766;53.490;10.174;2023-02-08T10:37:53;44.43;;;20.97;;
3503;SDS011;1766;53.490;10.174;2023-02-08T10:39:56;46.33;;;20.87;;
3503;SDS011;1766;53.490;10.174;2023-02-08T10:42:14;41.90;;;18.00;;
3503;SDS011;1766;53.490;10.174;2023-02-08T10:44:20;48.20;;;20.23;;
3503;SDS011;1766;53.490;10.174;2023-02-08T10:46:29;42.37;;;18.90;;
3503;SDS011;1766;53.490;10.174;2023-02-08T10:48:41;43.90;;;20.03;;
3503;SDS011;1766;53.490;10.174;2023-02-08T10:50:53;43.50;;;20.50;;
3503;SDS011;1766;53.490;10.174;2023-02-08T10:52:57;43.50;;;20.70;;
3503;SDS011;1766;53.490;10.174;2023-02-08T10:54:59;39.47;;;18.90;;
3503;SDS011;1766;53.490;10.174;2023-02-08T10:57:02;45.77;;;19.53;;
3503;SDS011;1766;53.490;10.174;2023-02-08T10:59:14;42.63;;;19.03;;
3503;SDS011;1766;53.490;10.174;2023-02-08T11:01:20;40.67;;;19.17;;
3503;SDS011;1766;53.490;10.174;2023-02-08T11:03:23;45.30;;;20.67;;
3503;SDS011;1766;53.490;10.174;2023-02-08T11:05:34;44.43;;;18.77;;
3503;SDS011;1766;53.490;10.174;2023-02-08T11:07:37;42.17;;;19.90;;
3503;SDS011;1766;53.490;10.174;2023-02-08T11:09:41;37.17;;;18.00;;
3503;SDS011;1766;53.490;10.174;2023-02-08T11:11:43;45.67;;;19.53;;
3503;SDS011;1766;53.490;10.174;2023-02-08T11:13:47;39.30;;;17.97;;
3503;SDS011;1766;53.490;10.174;2023-02-08T11:15:51;34.87;;;17.40;;
3503;SDS011;1766;53.490;10.174;2023-02-08T11:17:56;40.13;;;18.33;;
3503;SDS011;1766;53.490;10.174;2023-02-08T11:20:00;38.60;;;18.13;;
3503;SDS011;1766;53.490;10.174;2023-02-08T11:22:02;37.17;;;18.47;;
3503;SDS011;1766;53.490;10.174;2023-02-08T11:24:24;37.57;;;18.77;;
3503;SDS011;1766;53.490;10.174;2023-02-08T11:26:32;37.70;;;17.67;;
3503;SDS011;1766;53.490;10.174;2023-02-08T11:28:37;36.97;;;17.73;;
3503;SDS011;1766;53.490;10.174;2023-02-08T11:30:39;30.47;;;16.47;;
3503;SDS011;1766;53.490;10.174;2023-02-08T11:32:41;39.77;;;17.50;;
3503;SDS011;1766;53.490;10.174;2023-02-08T11:34:45;41.63;;;18.30;;
3503;SDS011;1766;53.490;10.174;2023-02-08T11:36:47;40.67;;;18.17;;
3503;SDS011;1766;53.490;10.174;2023-02-08T11:38:49;33.43;;;17.20;;
3503;SDS011;1766;53.490;10.174;2023-02-08T11:40:51;36.20;;;17.37;;
3503;SDS011;1766;53.490;10.174;2023-02-08T11:42:57;36.40;;;15.90;;
3503;SDS011;1766;53.490;10.174;2023-02-08T11:44:59;35.50;;;16.07;;
3503;SDS011;1766;53.490;10.174;2023-02-08T11:47:22;32.00;;;15.73;;
3503;SDS011;1766;53.490;10.174;2023-02-08T11:49:26;30.47;;;16.20;;
3503;SDS011;1766;53.490;10.174;2023-02-08T11:51:36;26.70;;;15.17;;
3503;SDS011;1766;53.490;10.174;2023-02-08T11:53:40;29.83;;;15.77;;
3503;SDS011;1766;53.490;10.174;2023-02-08T11:55:52;30.43;;;16.10;;
3503;SDS011;1766;53.490;10.174;2023-02-08T11:58:22;29.63;;;15.70;;
3503;SDS011;1766;53.490;10.174;2023-02-08T12:00:26;31.33;;;16.67;;
3503;SDS011;1766;53.490;10.174;2023-02-08T12:02:33;28.33;;;15.53;;
3503;SDS011;1766;53.490;10.174;2023-02-08T12:04:37;32.63;;;17.13;;
3503;SDS011;1766;53.490;10.174;2023-02-08T12:06:49;29.57;;;16.37;;
3503;SDS011;1766;53.490;10.174;2023-02-08T12:09:26;24.73;;;16.13;;
3503;SDS011;1766;53.490;10.174;2023-02-08T12:11:55;26.93;;;14.67;;
3503;SDS011;1766;53.490;10.174;2023-02-08T12:14:13;26.17;;;15.37;;
3503;SDS011;1766;53.490;10.174;2023-02-08T12:16:30;25.77;;;15.90;;
3503;SDS011;1766;53.490;10.174;2023-02-08T12:18:52;26.23;;;15.57;;
3503;SDS011;1766;53.490;10.174;2023-02-08T12:21:14;25.00;;;15.47;;
3503;SDS011;1766;53.490;10.174;2023-02-08T12:23:23;23.53;;;15.30;;
3503;SDS011;1766;53.490;10.174;2023-02-08T12:25:42;24.77;;;14.47;;
3503;SDS011;1766;53.490;10.174;2023-02-08T12:27:53;22.43;;;13.47;;
3503;SDS011;1766;53.490;10.174;2023-02-08T12:30:08;25.53;;;14.30;;
3503;SDS011;1766;53.490;10.174;2023-02-08T12:34:54;23.43;;;13.17;;